Time;durP1;ratioP1;P1;durP2;ratioP2;P2;SDS_P1;SDS_P2;PMS_P1;PMS_P2;Temp;Humidity;BMP_temperature;BMP_pressure;BME280_temperature;BME280_humidity;BME280_pressure;Samples;Min_cycle;Max_cycle;Signal;HPM_P1;HPM_P2
2023/06/20 00:02:48;;;;;;;16.70;9.30;;;;;;;17.54;69.22;99459.04;436696;1254;139328;-60
2023/06/20 00:12:51;;;;;;;16.10;9.70;;;;;;;17.57;69.45;99466.09;436537;1251;139584;-59
2023/06/20 00:22:55;;;;;;;11.40;9.60;;;;;;;17.49;69.04;99465.61;436569;1251;139594;-60
2023/06/20 00:32:58;;;;;;;10.90;8.90;;;;;;;17.34;69.44;99458.96;436513;1253;140699;-61
2023/06/20 00:43:03;;;;;;;10.50;9.40;;;;;;;17.11;70.34;99464.20;436096;1251;140560;-59
2023/06/20 00:53:07;;;;;;;11.60;9.00;;;;;;;16.87;70.95;99468.38;436269;1254;139107;-60
2023/06/20 01:03:12;;;;;;;12.90;9.70;;;;;;;16.64;71.24;99466.74;436266;1250;139246;-59
2023/06/20 01:13:23;;;;;;;12.60;9.80;;;;;;;16.41;71.54;99474.11;436643;1250;139901;-59
2023/06/20 01:23:33;;;;;;;11.20;9.60;;;;;;;16.27;72.08;99466.73;436647;1253;183646;-60
2023/06/20 01:33:47;;;;;;;12.70;11.20;;;;;;;16.15;72.60;99461.24;436450;1251;139918;-60
2023/06/20 01:43:52;;;;;;;23.10;10.40;;;;;;;16.11;72.98;99459.48;436480;1251;139265;-59
2023/06/20 01:53:56;;;;;;;21.90;10.50;;;;;;;16.07;73.39;99463.48;436367;1254;140121;-59
2023/06/20 02:04:01;;;;;;;19.40;10.20;;;;;;;16.00;73.55;99463.09;436790;1254;141074;-60
2023/06/20 02:14:06;;;;;;;20.50;12.30;;;;;;;15.88;74.09;99474.39;436142;1253;139699;-60
2023/06/20 02:24:12;;;;;;;17.60;14.10;;;;;;;15.83;74.41;99469.34;436673;1254;140043;-61
2023/06/20 02:34:19;;;;;;;16.60;11.90;;;;;;;15.83;74.23;99472.83;436605;1254;140113;-60
2023/06/20 02:44:22;;;;;;;18.80;10.90;;;;;;;15.71;74.65;99469.98;436768;1254;139748;-60
2023/06/20 02:54:33;;;;;;;19.50;13.40;;;;;;;15.67;74.80;99459.72;436315;1251;139433;-60
2023/06/20 03:04:37;;;;;;;17.90;14.70;;;;;;;15.94;75.03;99456.20;436260;1251;139669;-60
2023/06/20 03:14:40;;;;;;;22.50;12.10;;;;;;;17.17;74.20;99452.86;436206;1254;140484;-59
2023/06/20 03:24:45;;;;;;;17.70;12.80;;;;;;;18.24;71.45;99449.42;436576;1250;140964;-59
2023/06/20 03:34:49;;;;;;;22.80;14.60;;;;;;;20.19;68.87;99458.21;436683;1253;139260;-59
2023/06/20 03:44:52;;;;;;;16.90;15.30;;;;;;;20.07;65.18;99462.59;436584;1253;140726;-60
2023/06/20 03:54:55;;;;;;;18.10;16.30;;;;;;;20.15;65.32;99466.66;436449;1251;139682;-60
2023/06/20 04:04:58;;;;;;;15.60;14.20;;;;;;;24.38;61.17;99467.73;436449;1251;139244;-61
2023/06/20 04:15:01;;;;;;;16.60;14.60;;;;;;;28.36;53.87;99465.05;435960;1251;139577;-60
2023/06/20 04:25:06;;;;;;;16.90;13.60;;;;;;;31.13;47.37;99465.20;436047;1250;139498;-60
2023/06/20 04:35:10;;;;;;;14.40;13.00;;;;;;;33.34;42.65;99461.89;436291;1253;138714;-60
2023/06/20 04:45:14;;;;;;;15.70;14.10;;;;;;;35.64;38.59;99457.48;436561;1256;139896;-60
2023/06/20 04:55:20;;;;;;;13.90;12.40;;;;;;;37.83;34.83;99470.10;435999;1256;139449;-60
2023/06/20 05:05:23;;;;;;;15.10;13.70;;;;;;;39.65;31.43;99467.42;436439;1251;140995;-61
2023/06/20 05:15:26;;;;;;;13.70;12.00;;;;;;;38.88;30.59;99463.21;436040;1256;139178;-60
2023/06/20 05:25:29;;;;;;;11.40;10.40;;;;;;;42.07;28.15;99464.55;435914;1251;139446;-61
2023/06/20 05:35:33;;;;;;;13.10;11.10;;;;;;;44.50;25.37;99464.11;435896;1256;138885;-61
2023/06/20 05:45:36;;;;;;;10.30;9.30;;;;;;;46.07;23.03;99463.11;435532;1253;139047;-61
2023/06/20 05:55:40;;;;;;;8.90;8.30;;;;;;;47.44;21.63;99461.09;436671;1253;138783;-61
2023/06/20 06:05:43;;;;;;;9.30;8.60;;;;;;;49.61;20.23;99464.55;436129;1254;139024;-61
2023/06/20 06:15:45;;;;;;;8.50;7.70;;;;;;;51.41;18.46;99477.29;436023;1253;139604;-61
2023/06/20 06:26:04;;;;;;;7.70;7.30;;;;;;;52.74;17.21;99472.80;436353;1251;139365;-61
2023/06/20 06:36:08;;;;;;;8.20;7.10;;;;;;;53.27;16.55;99469.41;436541;1255;139023;-61
2023/06/20 06:46:11;;;;;;;8.50;7.90;;;;;;;55.17;15.54;99473.04;436112;1256;138941;-61
2023/06/20 06:56:14;;;;;;;9.20;8.50;;;;;;;55.69;14.50;99482.63;436256;1253;181191;-61
2023/06/20 07:06:17;;;;;;;10.20;9.60;;;;;;;55.57;14.15;99484.84;435895;1250;139008;-61
2023/06/20 07:16:20;;;;;;;10.90;10.20;;;;;;;56.90;13.60;99477.56;436281;1255;138594;-61
2023/06/20 07:26:24;;;;;;;10.40;9.80;;;;;;;56.25;13.41;99476.75;435940;1250;165754;-61
2023/06/20 07:36:27;;;;;;;11.90;11.00;;;;;;;57.26;12.44;99479.05;436290;1254;139169;-60
2023/06/20 07:46:29;;;;;;;5.30;5.00;;;;;;;57.04;11.57;99486.58;436366;1251;142283;-61
2023/06/20 07:56:33;;;;;;;3.70;3.40;;;;;;;53.95;12.13;99483.16;436326;1256;139096;-62
2023/06/20 08:06:36;;;;;;;4.90;4.50;;;;;;;47.57;14.54;99486.52;436712;1251;138361;-60
2023/06/20 08:16:40;;;;;;;4.90;4.50;;;;;;;43.33;16.58;99491.48;437655;1255;138261;-60
2023/06/20 08:26:43;;;;;;;4.20;3.90;;;;;;;40.60;17.68;99497.38;435826;1254;138328;-61
2023/06/20 08:36:46;;;;;;;7.80;4.80;;;;;;;39.27;18.74;99500.55;435831;1255;139288;-61
2023/06/20 08:46:56;;;;;;;7.50;5.40;;;;;;;38.40;19.49;99505.38;435976;1256;138322;-59
2023/06/20 08:57:00;;;;;;;5.00;4.60;;;;;;;37.94;20.03;99503.23;436016;1251;140320;-58
2023/06/20 09:07:13;;;;;;;5.80;5.00;;;;;;;37.04;20.63;99501.30;436069;1257;139275;-60
2023/06/20 09:17:16;;;;;;;5.10;4.60;;;;;;;36.57;21.40;99498.98;436043;1251;138176;-59
2023/06/20 09:27:21;;;;;;;4.80;4.40;;;;;;;36.14;21.67;99497.89;435984;1254;139619;-60
2023/06/20 09:37:24;;;;;;;6.70;5.30;;;;;;;35.65;21.82;99484.64;436039;1254;139474;-60
2023/06/20 09:47:27;;;;;;;5.30;4.90;;;;;;;35.55;22.22;99478.34;436027;1255;139479;-60
2023/06/20 09:57:37;;;;;;;6.20;5.20;;;;;;;35.05;22.30;99476.86;435898;1254;138497;-60
2023/06/20 10:07:41;;;;;;;5.20;4.70;;;;;;;34.58;22.55;99475.10;436044;1251;138266;-59
2023/06/20 10:17:46;;;;;;;17.80;5.90;;;;;;;33.91;22.96;99474.27;436349;1251;138656;-62
2023/06/20 10:27:56;;;;;;;5.10;4.70;;;;;;;33.48;23.18;99471.31;436385;1254;140656;-60
2023/06/20 10:38:08;;;;;;;4.70;4.30;;;;;;;33.01;23.27;99465.68;436492;1254;142642;-60
2023/06/20 10:48:11;;;;;;;5.10;4.60;;;;;;;32.52;24.08;99459.83;436058;1254;138992;-59
2023/06/20 10:58:17;;;;;;;5.40;4.90;;;;;;;32.04;24.88;99457.85;436176;1251;138817;-60
2023/06/20 11:08:35;;;;;;;6.20;4.80;;;;;;;31.88;25.19;99449.05;436036;1254;138223;-59
2023/06/20 11:18:38;;;;;;;5.10;4.70;;;;;;;31.84;25.28;99443.56;435932;1251;138694;-60
2023/06/20 11:28:41;;;;;;;6.10;5.40;;;;;;;31.66;25.73;99436.90;436137;1251;138991;-60
2023/06/20 11:38:44;;;;;;;4.80;4.30;;;;;;;31.73;25.76;99435.52;436696;1254;140501;-59
2023/06/20 11:48:50;;;;;;;5.70;5.20;;;;;;;31.72;25.86;99429.69;436036;1254;140610;-60
2023/06/20 11:58:53;;;;;;;4.70;4.30;;;;;;;31.75;25.69;99417.11;436139;1251;138439;-60
2023/06/20 12:08:58;;;;;;;6.10;5.60;;;;;;;31.86;26.02;99415.38;436535;1251;138810;-61
2023/06/20 12:19:01;;;;;;;5.70;5.00;;;;;;;31.97;25.99;99411.86;436272;1254;139716;-61
2023/06/20 12:29:05;;;;;;;5.70;5.30;;;;;;;32.04;26.61;99411.11;436381;1254;139134;-60
2023/06/20 12:39:08;;;;;;;8.70;5.60;;;;;;;32.18;26.21;99403.97;436738;1254;138343;-60
2023/06/20 12:49:11;;;;;;;5.70;5.30;;;;;;;32.05;25.92;99398.59;436104;1251;138286;-60
2023/06/20 12:59:14;;;;;;;6.20;5.70;;;;;;;31.93;26.01;99389.76;436168;1254;139593;-59
2023/06/20 13:09:17;;;;;;;7.20;6.20;;;;;;;31.85;26.08;99386.95;435873;1251;139831;-64
2023/06/20 13:19:22;;;;;;;6.00;5.50;;;;;;;31.49;26.57;99384.11;436132;1254;138719;-63
2023/06/20 13:29:25;;;;;;;6.30;5.60;;;;;;;31.03;26.77;99381.00;436340;1250;138376;-63
2023/06/20 13:39:29;;;;;;;10.70;6.10;;;;;;;30.64;27.25;99369.04;435476;1253;140887;-63
2023/06/20 13:49:35;;;;;;;7.70;7.00;;;;;;;30.57;27.83;99360.75;435703;1251;138863;-64
2023/06/20 13:59:38;;;;;;;5.80;5.40;;;;;;;30.69;27.99;99355.45;436337;1251;138706;-63
2023/06/20 14:09:43;;;;;;;6.70;6.10;;;;;;;30.67;28.02;99356.93;436152;1254;138915;-64
2023/06/20 14:19:46;;;;;;;11.50;6.00;;;;;;;30.50;28.08;99355.13;435765;1250;139186;-64
2023/06/20 14:29:48;;;;;;;6.80;6.20;;;;;;;30.59;28.25;99354.63;435909;1251;138596;-64
2023/06/20 14:39:54;;;;;;;6.30;5.80;;;;;;;30.71;28.19;99349.55;435734;1254;138485;-64
2023/06/20 14:49:58;;;;;;;6.40;5.80;;;;;;;30.82;28.29;99346.27;435511;1251;140118;-64
2023/06/20 15:00:01;;;;;;;7.10;5.50;;;;;;;30.94;28.10;99339.83;435997;1251;139379;-63
2023/06/20 15:10:05;;;;;;;5.80;5.40;;;;;;;31.16;28.20;99339.30;436327;1251;138442;-63
2023/06/20 15:20:10;;;;;;;6.50;6.00;;;;;;;31.31;28.11;99334.58;436453;1250;138915;-63
2023/06/20 15:30:15;;;;;;;6.70;6.00;;;;;;;31.42;28.00;99329.13;436390;1254;140142;-64
2023/06/20 15:40:21;;;;;;;5.90;5.50;;;;;;;31.43;28.07;99323.73;436216;1251;138160;-64
2023/06/20 15:50:24;;;;;;;8.30;6.00;;;;;;;31.42;28.02;99317.48;436084;1250;139580;-66
2023/06/20 16:00:28;;;;;;;6.00;5.50;;;;;;;31.26;28.08;99315.85;435889;1251;140495;-65
2023/06/20 16:10:31;;;;;;;6.50;5.80;;;;;;;30.84;28.29;99311.33;436252;1251;138223;-67
2023/06/20 16:20:34;;;;;;;6.80;6.20;;;;;;;30.47;28.62;99313.39;435479;1251;139074;-66
2023/06/20 16:30:37;;;;;;;5.70;5.10;;;;;;;30.24;29.00;99317.74;435188;1250;139773;-65
2023/06/20 16:40:40;;;;;;;7.30;6.10;;;;;;;29.98;29.13;99324.39;435921;1254;139325;-66
2023/06/20 16:50:43;;;;;;;7.40;6.60;;;;;;;29.76;29.52;99321.08;436160;1254;138138;-66
2023/06/20 17:00:46;;;;;;;6.30;5.80;;;;;;;29.50;29.75;99318.83;436266;1254;139335;-66
2023/06/20 17:10:49;;;;;;;7.10;6.50;;;;;;;29.26;30.10;99327.53;436501;1250;138417;-65
2023/06/20 17:20:52;;;;;;;7.10;6.60;;;;;;;28.96;30.48;99329.82;436419;1251;138114;-65
2023/06/20 17:30:56;;;;;;;6.50;6.00;;;;;;;28.60;31.14;99337.20;436599;1254;140289;-65
2023/06/20 17:41:00;;;;;;;7.40;6.70;;;;;;;28.33;31.50;99341.88;436796;1251;140484;-66
2023/06/20 17:51:03;;;;;;;7.30;6.70;;;;;;;28.08;32.42;99346.84;436456;1254;138982;-65
2023/06/20 18:01:06;;;;;;;8.10;7.30;;;;;;;27.80;33.19;99338.69;436110;1253;139320;-66
2023/06/20 18:11:09;;;;;;;7.20;6.60;;;;;;;27.48;34.00;99337.41;436432;1253;139638;-66
2023/06/20 18:21:12;;;;;;;8.30;7.60;;;;;;;27.14;34.89;99337.98;436267;1251;139545;-65
2023/06/20 18:31:15;;;;;;;9.10;7.20;;;;;;;26.83;35.70;99337.98;436027;1251;138496;-66
2023/06/20 18:41:18;;;;;;;8.90;7.80;;;;;;;26.55;36.29;99339.16;436362;1254;139194;-65
2023/06/20 18:51:22;;;;;;;8.70;7.80;;;;;;;26.30;36.84;99350.61;436337;1253;140727;-65
2023/06/20 19:01:25;;;;;;;8.40;7.60;;;;;;;26.06;37.64;99361.13;436534;1252;139581;-65
2023/06/20 19:11:28;;;;;;;8.60;7.80;;;;;;;25.84;38.60;99370.98;436382;1251;138236;-66
2023/06/20 19:21:31;;;;;;;9.30;8.50;;;;;;;25.61;39.41;99377.88;436588;1251;140331;-66
2023/06/20 19:31:38;;;;;;;8.90;8.20;;;;;;;25.36;40.29;99393.23;436080;1251;304542;-64
2023/06/20 19:41:42;;;;;;;9.80;9.00;;;;;;;25.14;40.88;99398.46;436219;1250;139824;-65
2023/06/20 19:51:46;;;;;;;9.80;9.00;;;;;;;24.92;41.54;99396.73;436079;1252;139108;-65
2023/06/20 20:01:49;;;;;;;10.20;9.40;;;;;;;24.69;42.15;99396.27;436841;1254;139491;-67
2023/06/20 20:11:53;;;;;;;10.90;9.80;;;;;;;24.44;42.89;99400.65;436230;1250;140299;-67
2023/06/20 20:21:56;;;;;;;10.20;9.30;;;;;;;24.20;43.49;99404.16;435946;1254;140134;-66
2023/06/20 20:32:01;;;;;;;11.30;10.20;;;;;;;24.00;44.33;99419.41;436242;1254;139277;-66
2023/06/20 20:42:06;;;;;;;11.00;10.10;;;;;;;23.77;45.04;99418.34;436015;1254;161525;-66
2023/06/20 20:52:10;;;;;;;12.40;11.40;;;;;;;23.51;46.03;99416.31;437028;1250;139023;-66
2023/06/20 21:02:13;;;;;;;12.10;10.90;;;;;;;23.30;46.89;99408.71;436630;1254;139215;-67
2023/06/20 21:12:16;;;;;;;12.90;11.70;;;;;;;23.18;47.63;99399.84;436017;1250;139164;-66
2023/06/20 21:22:20;;;;;;;12.20;11.00;;;;;;;23.08;48.14;99400.61;436287;1253;138871;-65
2023/06/20 21:32:23;;;;;;;12.70;11.70;;;;;;;22.97;48.54;99395.70;436224;1250;140154;-67
2023/06/20 21:42:26;;;;;;;14.10;12.80;;;;;;;22.90;48.84;99400.14;436445;1254;138639;-64
2023/06/20 21:52:29;;;;;;;13.60;12.50;;;;;;;22.88;49.00;99402.48;435637;1253;139276;-66
2023/06/20 22:02:32;;;;;;;12.50;11.50;;;;;;;22.85;49.36;99391.27;435730;1254;139652;-65
2023/06/20 22:12:36;;;;;;;12.80;11.70;;;;;;;22.82;49.59;99393.38;435549;1251;139110;-65
2023/06/20 22:22:39;;;;;;;13.40;12.10;;;;;;;22.77;49.86;99393.66;435872;1253;138539;-65
2023/06/20 22:32:43;;;;;;;14.10;12.90;;;;;;;22.70;50.40;99396.86;435341;1254;139282;-66
2023/06/20 22:42:46;;;;;;;14.30;13.10;;;;;;;22.60;50.92;99397.61;436522;1250;139190;-66
2023/06/20 22:52:49;;;;;;;14.00;12.70;;;;;;;22.47;51.42;99398.20;435968;1250;138791;-66
2023/06/20 23:02:53;;;;;;;15.20;13.70;;;;;;;22.31;52.22;99400.45;435752;1250;139412;-65
2023/06/20 23:12:56;;;;;;;15.10;13.60;;;;;;;22.18;52.96;99402.61;436375;1251;139404;-65
2023/06/20 23:22:59;;;;;;;14.20;13.00;;;;;;;22.09;53.45;99401.64;436206;1250;139258;-66
2023/06/20 23:33:04;;;;;;;13.50;12.20;;;;;;;22.17;53.91;99398.77;436226;1256;138631;-64
2023/06/20 23:43:07;;;;;;;15.40;14.10;;;;;;;22.27;54.08;99396.39;435843;1255;139110;-65
2023/06/20 23:53:10;;;;;;;15.70;13.50;;;;;;;22.30;54.23;99391.75;435971;1251;138668;-65
